Time;durP1;ratioP1;P1;durP2;ratioP2;P2;SDS_P1;SDS_P2;PMS_P1;PMS_P2;Temp;Humidity;BMP_temperature;BMP_pressure;BME280_temperature;BME280_humidity;BME280_pressure;Samples;Min_cycle;Max_cycle;Signal;HPM_P1;HPM_P2
2021/05/28 00:01:30;;;;;;;8.47;2.40;;;23.00;44.90;;;;;;21000957;28;20413;-64
2021/05/28 00:11:56;;;;;;;5.82;2.42;;;22.80;44.50;;;;;;21000189;28;20503;-64
2021/05/28 00:21:57;;;;;;;4.65;2.30;;;22.90;43.90;;;;;;20998864;28;20516;-65
2021/05/28 00:32:01;;;;;;;6.47;2.60;;;22.70;43.70;;;;;;21000735;28;20052;-65
2021/05/28 00:42:02;;;;;;;4.32;2.45;;;22.70;43.30;;;;;;20997124;28;20094;-63
2021/05/28 00:52:04;;;;;;;5.90;2.47;;;22.60;44.30;;;;;;20996250;28;20111;-65
2021/05/28 01:02:06;;;;;;;6.20;3.23;;;22.40;45.00;;;;;;20996170;28;20409;-66
2021/05/28 01:12:07;;;;;;;6.27;2.93;;;22.20;45.50;;;;;;20995659;28;20056;-66
2021/05/28 01:22:09;;;;;;;7.50;2.80;;;21.90;52.00;;;;;;20994694;28;20047;-66
2021/05/28 01:32:10;;;;;;;5.25;2.53;;;21.60;54.70;;;;;;20994372;28;20056;-65
2021/05/28 01:42:12;;;;;;;6.22;3.15;;;21.20;55.80;;;;;;20994440;28;20503;-65
2021/05/28 01:52:13;;;;;;;5.90;3.25;;;21.00;59.10;;;;;;20993198;28;20055;-66
2021/05/28 02:02:14;;;;;;;6.03;2.92;;;20.70;59.50;;;;;;20993780;28;20049;-66
2021/05/28 02:12:16;;;;;;;5.07;3.33;;;20.40;61.10;;;;;;20993245;28;20063;-66
2021/05/28 02:22:17;;;;;;;8.75;3.70;;;20.20;60.90;;;;;;20992882;28;20053;-64
2021/05/28 02:32:19;;;;;;;6.72;3.53;;;19.90;64.00;;;;;;20990829;28;20055;-63
2021/05/28 02:42:20;;;;;;;8.63;3.17;;;19.80;65.80;;;;;;20999536;28;20041;-65
2021/05/28 02:52:21;;;;;;;9.90;4.20;;;19.70;64.90;;;;;;21005901;28;20390;-64
2021/05/28 03:02:23;;;;;;;7.78;3.50;;;19.70;65.50;;;;;;21005793;28;20044;-69
2021/05/28 03:12:24;;;;;;;7.13;4.00;;;19.60;64.60;;;;;;21003107;28;20060;-66
2021/05/28 03:22:32;;;;;;;9.13;4.50;;;19.70;65.50;;;;;;21003938;28;20045;-63
2021/05/28 03:32:34;;;;;;;8.95;4.20;;;19.60;65.30;;;;;;21003727;28;20045;-66
2021/05/28 03:42:36;;;;;;;9.93;3.88;;;19.60;66.50;;;;;;21006904;28;20044;-66
2021/05/28 03:52:37;;;;;;;7.18;3.83;;;19.70;65.30;;;;;;21002031;28;20048;-65
2021/05/28 04:02:38;;;;;;;10.27;4.30;;;19.60;65.80;;;;;;21003781;28;20489;-64
2021/05/28 04:12:40;;;;;;;9.57;4.28;;;19.40;67.70;;;;;;21010703;28;20052;-63
2021/05/28 04:22:45;;;;;;;7.40;4.43;;;19.30;69.10;;;;;;20999689;28;20048;-64
2021/05/28 04:32:46;;;;;;;6.55;3.83;;;19.30;69.60;;;;;;20997817;28;20052;-64
2021/05/28 04:42:48;;;;;;;6.97;3.97;;;19.20;68.90;;;;;;20997239;28;20124;-65
2021/05/28 04:52:49;;;;;;;8.60;5.10;;;19.20;69.20;;;;;;20995788;28;20052;-66
2021/05/28 05:02:51;;;;;;;6.82;4.00;;;19.20;69.90;;;;;;20996314;28;20052;-66
2021/05/28 05:12:52;;;;;;;8.25;3.58;;;19.00;69.10;;;;;;20996378;28;20052;-66
2021/05/28 05:22:53;;;;;;;7.45;3.75;;;18.90;68.60;;;;;;20995181;28;20040;-64
2021/05/28 05:32:55;;;;;;;7.20;3.30;;;18.80;68.70;;;;;;20995463;28;20052;-64
2021/05/28 05:42:57;;;;;;;5.20;3.65;;;18.80;69.20;;;;;;20994848;28;20098;-67
2021/05/28 05:52:58;;;;;;;5.82;3.42;;;18.70;69.10;;;;;;20993403;28;20055;-62
2021/05/28 06:03:00;;;;;;;8.93;4.28;;;18.70;68.90;;;;;;20994265;28;20473;-63
2021/05/28 06:13:06;;;;;;;6.40;4.25;;;18.70;69.30;;;;;;20994515;28;20059;-63
2021/05/28 06:23:10;;;;;;;11.75;5.60;;;18.80;69.10;;;;;;21009496;28;20113;-62
2021/05/28 06:33:11;;;;;;;10.43;4.47;;;18.80;68.80;;;;;;21007859;28;20501;-62
2021/05/28 06:43:12;;;;;;;12.90;4.72;;;18.80;68.60;;;;;;21007574;28;20094;-62
2021/05/28 06:53:14;;;;;;;9.15;5.10;;;19.10;68.20;;;;;;21006079;28;20053;-62
2021/05/28 07:03:15;;;;;;;9.68;4.60;;;19.20;68.70;;;;;;21004945;28;20505;-62
2021/05/28 07:13:16;;;;;;;10.25;4.85;;;19.20;68.40;;;;;;21004861;28;20055;-62
2021/05/28 07:23:21;;;;;;;9.93;6.05;;;19.20;69.20;;;;;;21003810;28;20049;-61
2021/05/28 07:33:22;;;;;;;8.10;5.35;;;19.30;68.70;;;;;;21002131;28;20080;-63
2021/05/28 07:43:24;;;;;;;9.07;6.82;;;19.40;68.20;;;;;;21002705;28;20532;-62
2021/05/28 07:53:27;;;;;;;9.93;5.25;;;19.60;68.10;;;;;;21000916;28;20044;-62
2021/05/28 08:03:28;;;;;;;12.00;7.43;;;19.60;68.70;;;;;;20999564;28;20481;-67
2021/05/28 08:13:29;;;;;;;6.72;4.05;;;19.80;67.60;;;;;;20997824;28;20301;-60
2021/05/28 08:23:32;;;;;;;8.50;4.55;;;20.70;61.00;;;;;;20994282;28;20049;-61
2021/05/28 08:33:34;;;;;;;14.67;7.27;;;21.30;60.50;;;;;;20991728;28;20489;-64
2021/05/28 08:43:36;;;;;;;12.87;7.77;;;21.60;60.80;;;;;;20994439;28;20067;-64
2021/05/28 08:53:38;;;;;;;12.47;7.17;;;21.40;62.60;;;;;;20993246;28;20106;-65
2021/05/28 09:03:39;;;;;;;17.00;5.53;;;21.80;60.30;;;;;;20994442;28;20040;-60
2021/05/28 09:13:44;;;;;;;20.40;6.95;;;22.60;56.70;;;;;;20993349;28;20072;-69
2021/05/28 09:23:46;;;;;;;10.68;5.93;;;23.10;55.10;;;;;;20965739;28;20053;-63
2021/05/28 09:33:49;;;;;;;11.95;5.28;;;23.50;53.80;;;;;;20934407;28;20068;-59
2021/05/28 09:44:14;;;;;;;11.13;4.93;;;23.60;53.00;;;;;;20909818;28;20049;-62
2021/05/28 09:54:16;;;;;;;7.80;4.95;;;24.10;51.70;;;;;;20932908;28;20061;-68
2021/05/28 10:04:18;;;;;;;10.57;4.93;;;24.10;50.80;;;;;;20924780;28;20053;-62
2021/05/28 10:14:19;;;;;;;14.87;6.60;;;24.00;50.40;;;;;;20941095;28;20051;-61
2021/05/28 10:24:20;;;;;;;9.63;4.80;;;24.40;49.80;;;;;;20949491;28;20501;-57
2021/05/28 10:34:24;;;;;;;9.00;4.57;;;24.70;48.50;;;;;;20924218;28;20053;-58
2021/05/28 10:44:37;;;;;;;9.93;4.43;;;24.80;47.60;;;;;;20924116;28;20041;-57
2021/05/28 10:54:42;;;;;;;238.95;88.47;;;24.90;47.10;;;;;;20939406;28;20049;-61
2021/05/28 11:04:49;;;;;;;96.65;36.10;;;25.10;46.60;;;;;;20925535;28;20117;-59
2021/05/28 11:15:26;;;;;;;49.83;21.38;;;25.20;46.10;;;;;;20920723;28;20053;-58
2021/05/28 11:25:32;;;;;;;20.35;8.52;;;25.50;45.40;;;;;;20829175;28;20053;-60
2021/05/28 11:35:40;;;;;;;13.88;7.30;;;25.50;45.10;;;;;;20903892;28;20080;-60
2021/05/28 11:45:46;;;;;;;13.57;8.27;;;25.60;45.00;;;;;;20910092;28;20056;-61
2021/05/28 11:55:56;;;;;;;14.98;6.93;;;25.70;44.40;;;;;;20912336;28;20053;-60
2021/05/28 12:06:04;;;;;;;15.65;7.18;;;25.80;44.60;;;;;;20918167;28;20049;-61
2021/05/28 12:16:10;;;;;;;10.75;6.53;;;26.10;43.60;;;;;;20916497;28;20053;-60
2021/05/28 12:26:24;;;;;;;18.73;11.25;;;26.50;42.00;;;;;;20916111;28;20457;-59
2021/05/28 12:36:29;;;;;;;9.18;7.80;;;26.40;42.60;;;;;;20913837;28;20049;-60
2021/05/28 12:46:34;;;;;;;11.63;9.05;;;26.30;41.90;;;;;;20913726;28;20049;-60
2021/05/28 12:56:35;;;;;;;13.95;8.13;;;26.40;42.40;;;;;;20913961;28;20060;-61
2021/05/28 13:06:42;;;;;;;11.32;6.47;;;26.60;41.40;;;;;;20913674;28;20102;-60
2021/05/28 13:16:44;;;;;;;12.50;7.10;;;26.70;41.00;;;;;;20912321;28;20056;-61
2021/05/28 13:26:45;;;;;;;;;;;26.80;40.40;;;;;;20911711;28;20045;-61
2021/05/28 13:36:46;;;;;;;8.32;5.57;;;27.10;40.10;;;;;;20911095;28;20015;-61
2021/05/28 13:46:48;;;;;;;9.18;5.80;;;27.20;39.00;;;;;;20910619;28;20044;-61
2021/05/28 13:56:50;;;;;;;;;;;27.40;38.80;;;;;;20908972;28;20091;-61
2021/05/28 14:06:51;;;;;;;7.07;3.83;;;27.60;36.90;;;;;;20909422;28;20389;-61
2021/05/28 14:16:52;;;;;;;6.10;3.72;;;27.60;36.80;;;;;;20909006;28;20135;-60
2021/05/28 14:26:54;;;;;;;6.18;3.63;;;27.60;36.10;;;;;;20908440;28;20049;-60
2021/05/28 14:36:55;;;;;;;9.43;3.97;;;27.60;36.40;;;;;;20913128;28;20052;-61
2021/05/28 14:46:56;;;;;;;8.30;4.15;;;27.60;36.00;;;;;;20921888;28;20048;-62
2021/05/28 14:56:57;;;;;;;7.20;4.13;;;27.60;36.60;;;;;;20921925;28;20130;-61
2021/05/28 15:06:59;;;;;;;7.80;4.22;;;27.60;36.00;;;;;;20921523;28;20045;-61
2021/05/28 15:17:01;;;;;;;10.00;4.40;;;27.60;35.10;;;;;;20921222;28;20057;-61
2021/05/28 15:27:02;;;;;;;10.05;3.72;;;27.70;35.50;;;;;;20919957;28;20418;-60
2021/05/28 15:37:04;;;;;;;7.95;3.40;;;28.10;34.70;;;;;;20918647;28;20045;-61
2021/05/28 15:47:06;;;;;;;5.40;3.10;;;28.20;34.20;;;;;;20918193;28;20083;-59
2021/05/28 15:57:08;;;;;;;7.75;3.65;;;;;;;;;;20917234;28;20106;-65
2021/05/28 16:07:09;;;;;;;5.93;3.00;;;;;;;;;;20917270;28;20405;-65
2021/05/28 16:17:11;;;;;;;5.65;3.38;;;;;;;;;;20972550;28;20056;-64
2021/05/28 16:27:13;;;;;;;5.43;3.13;;;;;;;;;;20998754;28;20044;-63
2021/05/28 16:37:14;;;;;;;5.15;3.00;;;;;;;;;;20997825;28;20378;-63
2021/05/28 16:47:16;;;;;;;9.43;3.20;;;;;;;;;;21013927;28;20049;-63
2021/05/28 16:57:18;;;;;;;7.25;3.70;;;;;;;;;;21000874;28;20052;-65
2021/05/28 17:07:19;;;;;;;7.05;2.38;;;;;;;;;;20995376;28;20106;-64
2021/05/28 17:17:21;;;;;;;5.22;2.50;;;;;;;;;;20993910;28;20060;-65
2021/05/28 17:27:23;;;;;;;6.55;2.60;;;;;;;;;;20990895;28;20369;-59
2021/05/28 17:37:24;;;;;;;4.43;2.78;;;;;;;;;;20993387;28;20049;-62
2021/05/28 17:47:26;;;;;;;7.13;3.50;;;;;;;;;;20993182;28;20181;-61
2021/05/28 17:57:28;;;;;;;4.55;3.50;;;;;;;;;;20991227;28;20063;-61
2021/05/28 18:07:29;;;;;;;6.38;4.03;;;27.90;38.60;;;;;;20992268;28;20044;-61
2021/05/28 18:17:31;;;;;;;4.55;2.80;;;27.10;40.30;;;;;;21009869;28;20049;-62
2021/05/28 18:27:32;;;;;;;;;;;26.40;41.50;;;;;;21008802;28;20045;-61
2021/05/28 18:37:33;;;;;;;4.50;2.90;;;25.90;42.30;;;;;;21007128;28;19920;-61
2021/05/28 18:47:34;;;;;;;5.35;3.35;;;25.70;42.60;;;;;;21007161;28;20102;-61
2021/05/28 18:57:36;;;;;;;7.80;3.58;;;25.60;42.80;;;;;;21005926;28;20048;-60
2021/05/28 19:07:37;;;;;;;6.10;3.43;;;25.50;43.00;;;;;;21005510;28;20473;-61
2021/05/28 19:17:39;;;;;;;7.13;3.58;;;25.50;42.70;;;;;;21004746;28;20312;-61
2021/05/28 19:27:41;;;;;;;7.72;3.20;;;25.40;42.30;;;;;;21003292;28;20102;-60
2021/05/28 19:37:43;;;;;;;6.90;3.40;;;25.40;43.20;;;;;;21003421;28;20421;-61
2021/05/28 19:47:45;;;;;;;6.22;2.88;;;25.30;43.30;;;;;;21003676;28;20048;-61
2021/05/28 19:57:47;;;;;;;5.18;2.75;;;25.10;43.80;;;;;;21002148;28;20075;-60
2021/05/28 20:07:50;;;;;;;4.30;2.60;;;25.00;44.40;;;;;;21000730;28;20052;-60
2021/05/28 20:17:51;;;;;;;4.80;2.17;;;24.80;44.30;;;;;;20998504;28;20098;-62
2021/05/28 20:27:53;;;;;;;3.57;2.27;;;24.80;43.10;;;;;;20999961;28;20056;-63
2021/05/28 20:37:54;;;;;;;;;;;24.60;42.20;;;;;;20997995;28;20052;-63
2021/05/28 20:47:55;;;;;;;3.05;1.77;;;24.40;42.90;;;;;;20998841;28;20290;-64
2021/05/28 20:57:57;;;;;;;5.37;1.60;;;24.30;44.10;;;;;;20997674;28;20080;-63
2021/05/28 21:07:58;;;;;;;2.80;1.60;;;24.20;44.50;;;;;;20997798;28;20052;-62
2021/05/28 21:18:00;;;;;;;3.80;2.70;;;23.90;45.10;;;;;;20996939;28;20105;-63
2021/05/28 21:28:03;;;;;;;2.63;2.00;;;23.80;45.60;;;;;;20995899;28;20072;-64
2021/05/28 21:38:05;;;;;;;3.33;1.88;;;23.70;46.40;;;;;;20995793;28;20052;-63
2021/05/28 21:48:06;;;;;;;2.77;1.57;;;23.40;47.10;;;;;;20995050;28;20044;-63
2021/05/28 21:58:08;;;;;;;4.07;1.80;;;23.40;47.40;;;;;;20995873;28;20052;-64
2021/05/28 22:08:10;;;;;;;4.87;1.80;;;23.20;47.80;;;;;;20996172;28;20242;-65
2021/05/28 22:18:11;;;;;;;3.77;1.93;;;23.10;48.10;;;;;;20995702;28;20312;-62
2021/05/28 22:28:16;;;;;;;2.42;1.65;;;22.90;48.70;;;;;;20994570;28;20052;-64
2021/05/28 22:38:18;;;;;;;3.15;1.55;;;22.70;49.30;;;;;;20994030;28;20062;-63
2021/05/28 22:48:22;;;;;;;3.43;2.13;;;22.70;49.70;;;;;;20993970;28;20052;-63
2021/05/28 22:58:24;;;;;;;4.68;2.13;;;22.50;50.10;;;;;;20998762;28;20055;-62
2021/05/28 23:18:41;;;;;;;3.85;1.92;;;22.30;50.80;;;;;;21005446;28;20098;-63
2021/05/28 23:28:43;;;;;;;2.75;1.90;;;22.30;51.20;;;;;;21005309;28;20045;-62
2021/05/28 23:38:44;;;;;;;2.80;1.83;;;22.20;51.90;;;;;;21004662;28;20509;-63
2021/05/28 23:48:46;;;;;;;3.23;2.17;;;22.00;52.40;;;;;;21003172;28;20048;-63
2021/05/28 23:58:47;;;;;;;3.67;2.08;;;21.90;52.70;;;;;;21002770;28;20071;-62
